• Join FlightAware (Why Join?)
  • Login
  • US Flag 
07:34PM EDT


 

Airport Tracker/Info


-or-


 

Live Flight TrackerFlight Track Log ✈ N960DL ✈ 11-Apr-2013 ✈ KELP - KATL

Flight Track Log - Related Links

Times and Time Zones

All times are in EDT time to prevent confusion due to time zone crossing. See the N960DL flight status page for this flight to view local times or setup timezone preferences in your user account.

Time Position Orientation Groundspeed Altitude Reporting Facility
EDT Latitude Longitude Course Direction KTS MPH feet Rate Location/Type
03:28PM 31.8003 -106.4033 200° South 194 223 4,500  Level Albuquerque Center
03:28PM 31.7725 -106.4153 200° South 209 241 5,400 1,200 Climbing Albuquerque Center
03:29PM 31.7478 -106.4017 155° Southeast 237 273 5,800 1,560 Climbing Albuquerque Center
03:30PM 31.7056 -106.3275 124° Southeast 281 323 7,900 2,160 Climbing Albuquerque Center
03:31PM 31.6972 -106.2311 96° East 300 345 10,300 1,980 Climbing Albuquerque Center
03:32PM 31.6886 -106.1011 94° East 342 394 12,000 1,560 Climbing Albuquerque Center
03:33PM 31.6817 -105.9719 94° East 392 451 13,500 1,740 Climbing Albuquerque Center
03:34PM 31.6758 -105.8342 93° East 419 482 15,600 1,980 Climbing Albuquerque Center
03:35PM 31.6722 -105.6897 92° East 441 507 17,700 1,860 Climbing Albuquerque Center
03:36PM 31.6667 -105.5422 92° East 449 517 19,500 1,680 Climbing Albuquerque Center
03:37PM 31.6619 -105.3878 92° East 469 540 21,200 1,560 Climbing Albuquerque Center
03:38PM 31.6567 -105.2328 92° East 473 544 22,800 1,500 Climbing Albuquerque Center
03:39PM 31.6494 -105.0369 92° East 487 560 24,400 1,440 Climbing Albuquerque Center
03:40PM 31.6433 -104.8744 92° East 495 570 25,800 1,560 Climbing Albuquerque Center
03:41PM 31.6367 -104.7089 93° East 501 577 27,700 1,500 Climbing Albuquerque Center
03:42PM 31.6292 -104.5464 93° East 501 577 28,900 1,140 Climbing Albuquerque Center
03:43PM 31.6222 -104.3825 93° East 501 577 30,100 960 Climbing Albuquerque Center
03:44PM 31.6142 -104.2203 93° East 500 575 30,900 900 Climbing Albuquerque Center
03:45PM 31.6058 -104.0544 93° East 503 579 32,000 960 Climbing Albuquerque Center
03:46PM 31.5967 -103.8600 93° East 501 577 33,000 480 Climbing Albuquerque Center
03:47PM 31.5886 -103.7003 93° East 499 574 33,000  Level Albuquerque Center
03:48PM 31.5792 -103.5358 94° East 501 577 33,000  Level Albuquerque Center
03:50PM 31.5694 -103.3725 94° East 503 579 33,000 -60 Level Albuquerque Center
03:51PM 31.5608 -103.2097 94° East 501 577 32,900  Descending Albuquerque Center
03:52PM 31.5503 -103.0467 94° East 502 578 33,000  Climbing Albuquerque Center
03:53PM 31.5386 -102.8514 94° East 500 575 33,000  Level Albuquerque Center
03:54PM 31.5278 -102.6897 94° East 500 575 33,000  Level Albuquerque Center
03:55PM 31.5183 -102.5269 94° East 497 572 33,000  Level Albuquerque Center
03:56PM 31.5069 -102.3611 95° East 504 580 33,000  Level Albuquerque Center
03:57PM 31.4958 -102.1969 94° East 507 583 33,000  Level Albuquerque Center
03:58PM 31.4781 -102.0375 97° East 506 582 33,000  Level Albuquerque Center
03:59PM 31.4589 -101.8658 97° East 501 577 33,000  Level Albuquerque Center
03:59PM 31.4522 -101.7939 96° East 504 580 33,000  Level Fort Worth Center
04:00PM 31.4347 -101.6350 97° East 504 580 33,000  Level Fort Worth Center
04:01PM 31.4150 -101.4733 98° East 504 580 33,000  Level Fort Worth Center
04:02PM 31.3950 -101.3094 98° East 504 580 33,000  Level Fort Worth Center
04:03PM 31.3728 -101.1503 99° East 499 574 33,000  Level Fort Worth Center
04:04PM 31.3619 -101.0614 98° East 504 580 33,000  Level Houston Center
04:05PM 31.3433 -100.8961 97° East 498 573 33,000  Level Houston Center
04:05PM 31.3378 -100.8353 96° East 488 562 33,000  Level Fort Worth Center
04:07PM 31.3050 -100.5758 98° East 494 568 33,000  Level Houston Center
04:08PM 31.2811 -100.3806 98° East 502 578 33,000  Level Houston Center
04:09PM 31.2608 -100.2181 98° East 504 580 33,000  Level Houston Center
04:10PM 31.2400 -100.0569 99° East 502 578 33,000  Level Houston Center
04:11PM 31.2189 -99.8942 99° East 503 579 33,000  Level Houston Center
04:12PM 31.1972 -99.7317 99° East 504 580 33,000  Level Houston Center
04:13PM 31.1764 -99.5706 99° East 502 578 33,000  Level Houston Center
04:14PM 31.1483 -99.3756 99° East 507 583 33,000  Level Houston Center
04:15PM 31.1275 -99.2136 99° East 505 581 33,000  Level Houston Center
04:16PM 31.1069 -99.0597 99° East 501 577 33,000  Level Houston Center
04:17PM 31.0831 -98.8975 100° East 502 578 33,000  Level Houston Center
04:18PM 31.0569 -98.7081 99° East 502 578 33,000  Level Houston Center
04:19PM 31.0339 -98.5461 99° East 503 579 33,000  Level Houston Center
04:20PM 31.0106 -98.3842 100° East 502 578 33,000  Level Houston Center
04:21PM 30.9875 -98.2222 99° East 501 577 33,000  Level Houston Center
04:22PM 30.9650 -98.0603 99° East 502 578 33,000  Level Houston Center
04:24PM 30.9408 -97.8992 100° East 501 577 33,000  Level Houston Center
04:25PM 30.9175 -97.7381 100° East 501 577 33,000  Level Houston Center
04:26PM 30.8892 -97.5525 100° East 498 573 33,000  Level Houston Center
04:27PM 30.8647 -97.3919 100° East 504 580 33,000  Level Houston Center
04:28PM 30.8422 -97.2336 99° East 504 580 33,000  Level Houston Center
04:29PM 30.8186 -97.0753 100° East 503 579 33,000  Level Houston Center
04:30PM 30.7886 -96.8897 101° East 497 572 33,000  Level Houston Center
04:31PM 30.7631 -96.7281 100° East 501 577 33,000  Level Houston Center
04:32PM 30.7378 -96.5667 100° East 502 578 33,000  Level Houston Center
04:33PM 30.7122 -96.4042 100° East 506 582 33,000  Level Houston Center
04:34PM 30.6861 -96.2439 101° East 502 578 33,000  Level Houston Center
04:35PM 30.6617 -96.0817 100° East 504 580 33,000  Level Houston Center
04:36PM 30.6308 -95.9006 101° East 498 573 33,000  Level Houston Center
04:37PM 30.6050 -95.7419 101° East 498 573 33,000  Level Houston Center
04:38PM 30.5803 -95.5836 100° East 498 573 33,000  Level Houston Center
04:39PM 30.5689 -95.4264 95° East 497 572 33,000  Level Houston Center
04:40PM 30.6539 -95.2989 52° Northeast 449 517 33,000  Level Houston Center
04:41PM 30.7658 -95.2519 20° North 424 488 33,000  Level Houston Center
04:42PM 30.8761 -95.2047 20° North 421 484 33,000  Level Houston Center
04:43PM 30.9864 -95.1581 20° North 419 482 33,000  Level Houston Center
04:44PM 31.0975 -95.1108 20° North 420 483 33,000  Level Houston Center
04:45PM 31.2097 -95.0631 20° North 423 487 33,000  Level Houston Center
04:46PM 31.3222 -95.0147 20° North 423 487 33,000  Level Houston Center
04:47PM 31.4578 -94.9578 20° North 423 487 33,000  Level Houston Center
04:48PM 31.4794 -94.9483 20° North 425 489 33,000  Level Fort Worth Center
04:48PM 31.5547 -94.8692 42° Northeast 446 513 33,000  Level Houston Center
04:49PM 31.6375 -94.7586 49° Northeast 448 516 33,000  Level Houston Center
04:50PM 31.6528 -94.7411 44° Northeast 432 497 33,000  Level Fort Worth Center
04:51PM 31.7358 -94.6311 48° Northeast 432 497 33,000  Level Fort Worth Center
04:52PM 31.8231 -94.5136 49° Northeast 437 503 33,000  Level Fort Worth Center
04:53PM 31.9061 -94.4058 48° Northeast 437 503 33,000  Level Fort Worth Center
04:54PM 31.9889 -94.2953 49° Northeast 437 503 33,000  Level Fort Worth Center
04:55PM 32.0719 -94.1847 48° Northeast 443 510 33,000  Level Fort Worth Center
04:56PM 32.1544 -94.0714 49° Northeast 443 510 33,000  Level Fort Worth Center
04:57PM 32.2269 -93.9703 50° Northeast 450 518 33,000  Level Fort Worth Center
04:58PM 32.3094 -93.8567 49° Northeast 450 518 33,000  Level Fort Worth Center
04:59PM 32.3936 -93.7428 49° Northeast 450 518 33,000  Level Fort Worth Center
05:00PM 32.4800 -93.6258 49° Northeast 455 524 33,000  Level Fort Worth Center
05:01PM 32.5661 -93.5064 49° Northeast 466 536 33,000  Level Fort Worth Center
05:02PM 32.6542 -93.3867 49° Northeast 472 543 33,000  Level Fort Worth Center
05:03PM 32.7400 -93.2667 50° Northeast 477 549 33,000  Level Fort Worth Center
05:04PM 32.8300 -93.1464 48° Northeast 477 549 33,000  Level Fort Worth Center
05:05PM 32.9175 -93.0233 50° Northeast 477 549 33,000  Level Fort Worth Center
05:06PM 33.0069 -92.9003 49° Northeast 477 549 33,000  Level Fort Worth Center
05:07PM 33.0986 -92.7742 49° Northeast 484 557 33,000  Level Fort Worth Center
05:08PM 33.1878 -92.6478 50° Northeast 484 557 33,000  Level Fort Worth Center
05:11PM 33.4931 -92.2206 49° Northeast 508 585 33,000  Level Memphis Center
05:12PM 33.5889 -92.0928 48° Northeast 508 585 33,000  Level Memphis Center
05:13PM 33.6806 -91.9572 51° Northeast 508 585 33,000  Level Memphis Center
05:14PM 33.7739 -91.8267 49° Northeast 508 585 33,000  Level Memphis Center
05:15PM 33.8589 -91.6931 53° Northeast 513 590 33,000  Level Memphis Center
05:16PM 33.9478 -91.5617 51° Northeast 507 583 33,000  Level Memphis Center
05:17PM 34.0386 -91.4325 50° Northeast 513 590 33,000  Level Memphis Center
05:18PM 34.1253 -91.3031 51° Northeast 508 585 33,000  Level Memphis Center
05:19PM 34.2139 -91.1733 50° Northeast 491 565 33,000  Level Memphis Center
05:20PM 34.3044 -91.0436 50° Northeast 485 558 33,000  Level Memphis Center
05:21PM 34.3947 -90.9108 50° Northeast 492 566 33,000  Level Memphis Center
05:22PM 34.4517 -90.7803 62° Northeast 495 570 33,000  Level Memphis Center
05:23PM 34.4647 -90.6267 84° East 459 528 33,000  Level Memphis Center
05:24PM 34.4731 -90.4706 86° East 454 522 33,000  Level Memphis Center
05:25PM 34.4836 -90.3142 85° East 462 532 33,000  Level Memphis Center
05:26PM 34.4939 -90.1581 85° East 468 539 33,000  Level Memphis Center
05:27PM 34.5019 -89.9992 86° East 468 539 33,000  Level Memphis Center
05:28PM 34.5097 -89.8406 87° East 468 539 33,000  Level Memphis Center
05:29PM 34.5172 -89.6817 87° East 468 539 33,000  Level Memphis Center
05:30PM 34.5267 -89.5278 86° East 462 532 33,000  Level Memphis Center
05:31PM 34.5361 -89.3739 86° East 462 532 33,000  Level Memphis Center
05:32PM 34.5431 -89.2225 87° East 457 526 33,000  Level Memphis Center
05:33PM 34.5500 -89.0686 87° East 452 520 33,000  Level Memphis Center
05:34PM 34.5586 -88.9019 86° East 457 526 33,000  Level Memphis Center
05:35PM 34.5653 -88.7683 86° East 451 519 33,000  Level Memphis Center
05:36PM 34.5714 -88.6142 87° East 451 519 33,000  Level Memphis Center
05:37PM 34.5775 -88.4603 87° East 451 519 33,000  Level Memphis Center
05:38PM 34.5814 -88.3036 88° East 446 513 33,000  Level Memphis Center
05:39PM 34.5908 -88.1269 86° East 471 542 33,000  Level Memphis Center
05:40PM 34.6550 -87.9839 61° Northeast 469 540 33,000  Level Memphis Center
05:41PM 34.7419 -87.8500 52° Northeast 477 549 33,000  Level Memphis Center
05:42PM 34.8206 -87.7186 54° Northeast 490 564 33,000  Level Memphis Center
05:43PM 34.8914 -87.6075 52° Northeast 477 549 33,000  Level Memphis Center
05:44PM 34.9717 -87.4733 54° Northeast 477 549 33,000  Level Memphis Center
05:45PM 35.0519 -87.3386 54° Northeast 483 556 33,000  Level Memphis Center
05:46PM 35.1361 -87.2036 53° Northeast 489 563 33,000  Level Memphis Center
05:47PM 35.2181 -87.0656 54° Northeast 489 563 33,000  Level Memphis Center
05:48PM 35.2997 -86.9250 55° Northeast 494 568 33,000  Level Memphis Center
05:49PM 35.3875 -86.7764 54° Northeast 494 568 33,000  Level Memphis Center
05:50PM 35.4689 -86.6403 54° Northeast 494 568 33,000  Level Memphis Center
05:51PM 35.5522 -86.5011 54° Northeast 494 568 33,000  Level Memphis Center
05:52PM 35.6356 -86.3644 53° Northeast 494 568 33,000  Level Memphis Center
05:53PM 35.7206 -86.2197 54° Northeast 505 581 33,000  Level Memphis Center
05:54PM 35.8011 -86.0775 55° Northeast 505 581 33,000  Level Memphis Center
05:55PM 35.8286 -85.9122 78° East 487 560 33,000  Level Memphis Center
05:56PM 35.8400 -85.7631 85° East 476 548 33,000  Level Memphis Center
05:57PM 35.7486 -85.5561 119° Southeast 436 502 33,000  Level Atlanta Center
05:58PM 35.6536 -85.4622 141° Southeast 417 480 33,000  Level Atlanta Center
05:59PM 35.5567 -85.3764 144° Southeast 422 486 33,000  Level Atlanta Center
06:00PM 35.4553 -85.2983 148° Southeast 427 491 33,000  Level Atlanta Center
06:01PM 35.3517 -85.2228 149° Southeast 432 497 33,000  Level Atlanta Center
06:02PM 35.2481 -85.1475 149° Southeast 432 497 33,000  Level Atlanta Center
06:03PM 35.1422 -85.0725 150° Southeast 432 497 33,000 -720 Level Atlanta Center
06:04PM 35.0275 -85.0608 175° South 413 475 31,600 -1,860 Descending Atlanta Center
06:05PM 34.9128 -85.0622 181° South 413 475 29,300 -1,740 Descending Atlanta Center
06:06PM 34.7961 -85.0556 177° South 413 475 28,200 -2,640 Descending Atlanta Center
06:07PM 34.6792 -85.0492 177° South 418 481 24,100 -3,300 Descending Atlanta Center
06:08PM 34.5667 -85.0453 178° South 418 481 21,600 -1,920 Descending Atlanta Center
06:09PM 34.4686 -85.0392 177° South 380 437 20,300 -1,860 Descending Atlanta Center
06:10PM 34.3767 -85.0356 178° South 343 395 17,900 -2,160 Descending Atlanta Center
06:11PM 34.2975 -85.0319 178° South 327 376 16,000 -1,800 Descending Atlanta Center
06:12PM 34.2097 -85.0258 177° South 327 376 14,300 -1,020 Descending Atlanta Center
06:13PM 34.1347 -85.0250 179° South 295 339 14,000 -120 Descending Atlanta Center
06:14PM 34.0661 -84.9917 158° South 271 312 14,100 -720 Climbing Atlanta Center
06:15PM 34.0042 -84.9133 134° Southeast 290 334 12,600 -1,560 Descending Atlanta Center
06:16PM 33.9442 -84.8375 134° Southeast 314 361 11,000 -840 Descending Atlanta Center
06:17PM 33.8819 -84.7619 135° Southeast 319 367 11,000  Level Atlanta Center
06:18PM 33.8500 -84.7167 130° Southeast 309 356 11,000  Level Atlanta TRACON
06:19PM 33.7833 -84.6500 140° Southeast 311 358 11,000  Level Atlanta TRACON
06:20PM 33.7333 -84.5667 126° Southeast 293 337 11,000 -240 Level Atlanta TRACON
06:21PM 33.7333 -84.4667 90° East 319 367 10,600 -960 Descending Atlanta TRACON
06:22PM 33.7333 -84.3667 90° East 310 357 9,100 -1,200 Descending Atlanta TRACON
06:23PM 33.7333 -84.2667 90° East 273 314 8,200 -1,080 Descending Atlanta TRACON
06:24PM 33.7333 -84.1833 90° East 243 280 7,000 -1,320 Descending Atlanta TRACON
06:25PM 33.7333 -84.1167 90° East 235 270 5,800 -1,020 Descending Atlanta TRACON
06:26PM 33.7333 -84.0333 90° East 228 262 5,000 -420 Descending Atlanta TRACON
06:27PM 33.6833 -84.0000 151° Southeast 202 232 5,000  Level Atlanta TRACON
06:28PM 33.6500 -84.0667 239° Southwest 206 237 5,000  Level Atlanta TRACON
06:29PM 33.6500 -84.1167 270° West 205 236 5,000 -240 Level Atlanta TRACON
06:30PM 33.6500 -84.1833 270° West 191 220 4,600 -840 Descending Atlanta TRACON
06:31PM 33.6500 -84.2500 270° West 200 230 3,400 -1,080 Descending Atlanta TRACON
06:32PM 33.6500 -84.3167 270° West 197 227 2,400 -960 Descending Atlanta TRACON
06:33PM 33.6500 -84.3833 270° West 157 181 1,500 -900 Descending Atlanta TRACON